Time;durP1;ratioP1;P1;durP2;ratioP2;P2;SDS_P1;SDS_P2;PMS_P1;PMS_P2;Temp;Humidity;BMP_temperature;BMP_pressure;BME280_temperature;BME280_humidity;BME280_pressure;Samples;Min_cycle;Max_cycle;Signal;HPM_P1;HPM_P2
2022/03/19 00:00:27;;;;;;;;;;;7.30;85.90;;;;;;5068858;28;20348;-70
2022/03/19 00:02:53;;;;;;;;;;;7.20;85.80;;;;;;5064987;28;19920;-70
2022/03/19 00:05:18;;;;;;;;;;;7.20;85.70;;;;;;5084078;28;19955;-70
2022/03/19 00:07:44;;;;;;;;;;;7.20;85.80;;;;;;5083264;28;19908;-70
2022/03/19 00:10:10;;;;;;;;;;;7.20;85.80;;;;;;5083195;28;19923;-70
2022/03/19 00:12:38;;;;;;;;;;;7.20;85.80;;;;;;5082740;28;19916;-71
2022/03/19 00:15:04;;;;;;;;;;;7.10;85.80;;;;;;5085195;28;19912;-70
2022/03/19 00:17:29;;;;;;;;;;;7.10;85.70;;;;;;5087056;28;19915;-70
2022/03/19 00:19:55;;;;;;;;;;;7.10;85.70;;;;;;5088265;28;19995;-70
2022/03/19 00:22:20;;;;;;;;;;;7.10;85.90;;;;;;5085089;28;19919;-70
2022/03/19 00:24:46;;;;;;;;;;;7.10;86.00;;;;;;5085047;28;19919;-70
2022/03/19 00:27:11;;;;;;;;;;;7.10;85.90;;;;;;5085954;28;19927;-70
2022/03/19 00:29:37;;;;;;;;;;;7.10;85.90;;;;;;5075878;28;19916;-70
2022/03/19 00:32:03;;;;;;;;;;;7.10;85.80;;;;;;5087227;28;19923;-70
2022/03/19 00:34:28;;;;;;;;;;;7.00;85.70;;;;;;5087618;28;19916;-71
2022/03/19 00:36:54;;;;;;;;;;;7.00;85.80;;;;;;5086515;28;19995;-70
2022/03/19 00:39:20;;;;;;;;;;;7.00;85.90;;;;;;5086088;28;19908;-70
2022/03/19 00:41:45;;;;;;;;;;;7.00;85.80;;;;;;5087445;28;19930;-71
2022/03/19 00:44:11;;;;;;;;;;;7.00;85.90;;;;;;5086082;28;19920;-70
2022/03/19 00:46:36;;;;;;;;;;;7.00;85.90;;;;;;5086032;28;19912;-70
2022/03/19 00:49:02;;;;;;;;;;;6.90;85.80;;;;;;5083320;28;20451;-70
2022/03/19 00:51:27;;;;;;;;;;;6.90;85.80;;;;;;5070564;28;19912;-70
2022/03/19 00:53:53;;;;;;;;;;;6.90;85.70;;;;;;5088034;28;19931;-70
2022/03/19 00:56:18;;;;;;;;;;;6.90;86.50;;;;;;5086538;28;19920;-70
2022/03/19 00:58:44;;;;;;;;;;;6.90;85.80;;;;;;5080172;28;20777;-70
2022/03/19 01:01:09;;;;;;;;;;;6.90;85.80;;;;;;5084463;28;19954;-70
2022/03/19 01:03:35;;;;;;;;;;;6.90;85.80;;;;;;5083654;28;19912;-70
2022/03/19 01:06:00;;;;;;;;;;;6.90;85.90;;;;;;5082542;28;20376;-70
2022/03/19 01:08:26;;;;;;;;;;;6.90;85.80;;;;;;5086299;28;19923;-70
2022/03/19 01:10:52;;;;;;;;;;;6.80;85.70;;;;;;5086949;28;19916;-70
2022/03/19 01:13:17;;;;;;;;;;;6.80;85.90;;;;;;5082471;28;19913;-70
2022/03/19 01:15:43;;;;;;;;;;;6.80;85.90;;;;;;5087606;28;19919;-70
2022/03/19 01:18:09;;;;;;;;;;;6.80;85.80;;;;;;5086023;28;20689;-70
2022/03/19 01:20:34;;;;;;;;;;;6.80;85.80;;;;;;5074010;28;19939;-71
2022/03/19 01:23:00;;;;;;;;;;;6.80;85.80;;;;;;5087518;28;19912;-70
2022/03/19 01:25:25;;;;;;;;;;;6.70;85.70;;;;;;5071549;28;19951;-70
2022/03/19 01:27:51;;;;;;;;;;;6.70;85.80;;;;;;5069894;28;20000;-70
2022/03/19 01:30:18;;;;;;;;;;;6.70;85.80;;;;;;5071664;28;19916;-71
2022/03/19 01:32:44;;;;;;;;;;;6.70;85.80;;;;;;5083166;28;19916;-70
2022/03/19 01:35:10;;;;;;;;;;;6.70;85.80;;;;;;5085007;28;19908;-70
2022/03/19 01:37:36;;;;;;;;;;;6.70;85.80;;;;;;5087646;28;19908;-71
2022/03/19 01:40:02;;;;;;;;;;;6.70;85.80;;;;;;5086167;28;19916;-70
2022/03/19 01:42:29;;;;;;;;;;;6.60;85.80;;;;;;5086884;28;19953;-70
2022/03/19 01:44:55;;;;;;;;;;;6.70;85.80;;;;;;5069958;28;19919;-70
2022/03/19 01:47:21;;;;;;;;;;;6.60;85.80;;;;;;5085676;28;20065;-70
2022/03/19 01:49:47;;;;;;;;;;;6.60;85.90;;;;;;5085814;28;19938;-70
2022/03/19 01:52:12;;;;;;;;;;;6.60;85.80;;;;;;5085303;28;19912;-70
2022/03/19 01:54:39;;;;;;;;;;;6.60;85.80;;;;;;5085671;28;19916;-70
2022/03/19 01:57:05;;;;;;;;;;;6.60;85.90;;;;;;5070800;28;19923;-70
2022/03/19 01:59:32;;;;;;;;;;;6.60;85.90;;;;;;5065003;28;19912;-70
2022/03/19 02:01:58;;;;;;;;;;;6.60;85.80;;;;;;5086754;28;19919;-70
2022/03/19 02:04:24;;;;;;;;;;;6.50;85.80;;;;;;5083592;28;19916;-70
2022/03/19 02:06:50;;;;;;;;;;;6.50;85.90;;;;;;5086537;28;19935;-70
2022/03/19 02:09:15;;;;;;;;;;;6.50;86.00;;;;;;5086023;28;19954;-70
2022/03/19 02:11:41;;;;;;;;;;;6.50;85.90;;;;;;5085202;28;19995;-71
2022/03/19 02:14:06;;;;;;;;;;;6.50;85.90;;;;;;5086488;28;19955;-70
2022/03/19 02:16:32;;;;;;;;;;;6.50;85.90;;;;;;5085602;28;19919;-70
2022/03/19 02:18:58;;;;;;;;;;;6.50;85.90;;;;;;5086136;28;19916;-70
2022/03/19 02:21:23;;;;;;;;;;;6.50;85.80;;;;;;5083021;28;19912;-70
2022/03/19 02:26:46;;;;;;;;;;;6.40;85.50;;;;;;5083577;28;20794;-70
2022/03/19 02:29:11;;;;;;;;;;;6.40;85.70;;;;;;5083908;28;20015;-70
2022/03/19 02:31:39;;;;;;;;;;;6.40;85.70;;;;;;5085182;28;20007;-70
2022/03/19 02:34:08;;;;;;;;;;;6.40;85.70;;;;;;5066471;28;20005;-70
2022/03/19 02:36:34;;;;;;;;;;;6.40;85.80;;;;;;5071211;28;19948;-70
2022/03/19 02:38:59;;;;;;;;;;;6.40;85.90;;;;;;5084301;28;20029;-70
2022/03/19 02:41:25;;;;;;;;;;;6.40;85.90;;;;;;5083804;28;19912;-70
2022/03/19 02:43:50;;;;;;;;;;;6.40;85.90;;;;;;5086035;28;19916;-70
2022/03/19 02:46:16;;;;;;;;;;;6.40;85.90;;;;;;5076877;28;19958;-70
2022/03/19 02:48:41;;;;;;;;;;;6.40;86.40;;;;;;5081853;28;19919;-70
2022/03/19 02:51:08;;;;;;;;;;;6.30;85.90;;;;;;5082187;28;20294;-70
2022/03/19 02:53:33;;;;;;;;;;;6.30;85.90;;;;;;5084222;28;20646;-70
2022/03/19 02:55:59;;;;;;;;;;;6.30;85.90;;;;;;5074225;28;19908;-70
2022/03/19 02:58:25;;;;;;;;;;;6.30;85.90;;;;;;5080617;28;19999;-70
2022/03/19 03:00:50;;;;;;;;;;;6.30;85.90;;;;;;5084654;28;20081;-71
2022/03/19 03:03:16;;;;;;;;;;;6.30;86.00;;;;;;5084791;28;20321;-70
2022/03/19 03:05:41;;;;;;;;;;;6.30;86.00;;;;;;5084352;28;19919;-70
2022/03/19 03:08:07;;;;;;;;;;;6.30;86.00;;;;;;5067504;28;20365;-70
2022/03/19 03:10:32;;;;;;;;;;;6.30;86.00;;;;;;5083525;28;19965;-70
2022/03/19 03:12:59;;;;;;;;;;;6.20;86.10;;;;;;5084388;28;19916;-70
2022/03/19 03:15:24;;;;;;;;;;;6.20;86.00;;;;;;5083009;28;19922;-70
2022/03/19 03:17:50;;;;;;;;;;;6.20;86.00;;;;;;5083108;28;19909;-70
2022/03/19 03:20:16;;;;;;;;;;;6.20;86.00;;;;;;5084331;28;20327;-70
2022/03/19 03:22:44;;;;;;;;;;;6.20;86.00;;;;;;5082547;28;20019;-66
2022/03/19 03:25:10;;;;;;;;;;;6.20;86.00;;;;;;5081478;28;20364;-66
2022/03/19 03:27:36;;;;;;;;;;;6.20;86.00;;;;;;5082838;28;19912;-66
2022/03/19 03:30:02;;;;;;;;;;;6.20;86.00;;;;;;5085167;28;19942;-66
2022/03/19 03:32:28;;;;;;;;;;;6.10;86.10;;;;;;5083259;28;20761;-66
2022/03/19 03:34:54;;;;;;;;;;;6.10;86.00;;;;;;5084101;28;19955;-66
2022/03/19 03:37:19;;;;;;;;;;;6.10;86.00;;;;;;5083710;28;19912;-66
2022/03/19 03:39:45;;;;;;;;;;;6.10;86.10;;;;;;5082808;28;20437;-66
2022/03/19 03:42:10;;;;;;;;;;;6.10;86.10;;;;;;5066764;28;19963;-66
2022/03/19 03:44:39;;;;;;;;;;;6.10;86.10;;;;;;5084190;28;20260;-66
2022/03/19 03:47:05;;;;;;;;;;;6.10;86.10;;;;;;5082391;28;19908;-66
2022/03/19 03:49:31;;;;;;;;;;;6.10;86.10;;;;;;5081049;28;20646;-66
2022/03/19 03:51:56;;;;;;;;;;;6.10;86.10;;;;;;5062219;28;19986;-66
2022/03/19 03:54:22;;;;;;;;;;;6.00;86.10;;;;;;5084937;28;20006;-66
2022/03/19 03:56:48;;;;;;;;;;;6.00;86.10;;;;;;5083786;28;19927;-66
2022/03/19 03:59:13;;;;;;;;;;;6.00;86.20;;;;;;5066947;28;20015;-66
2022/03/19 04:01:39;;;;;;;;;;;6.00;86.20;;;;;;5080567;28;19924;-66
2022/03/19 04:04:04;;;;;;;;;;;6.00;86.20;;;;;;5083345;28;19912;-66
2022/03/19 04:06:30;;;;;;;;;;;6.00;86.20;;;;;;5069133;28;20466;-66
2022/03/19 04:08:55;;;;;;;;;;;6.00;86.20;;;;;;5081931;28;19916;-66
2022/03/19 04:11:21;;;;;;;;;;;6.00;86.20;;;;;;5071918;28;20039;-66
2022/03/19 04:13:46;;;;;;;;;;;6.00;86.10;;;;;;5083527;28;20005;-66
2022/03/19 04:16:12;;;;;;;;;;;6.00;86.20;;;;;;5084762;28;19912;-66
2022/03/19 04:18:37;;;;;;;;;;;5.90;86.20;;;;;;5085249;28;20026;-66
2022/03/19 04:21:03;;;;;;;;;;;5.90;86.20;;;;;;5082736;28;19946;-66
2022/03/19 04:23:28;;;;;;;;;;;5.90;86.10;;;;;;5084026;28;20308;-66
2022/03/19 04:25:54;;;;;;;;;;;5.90;86.60;;;;;;5084936;28;19912;-66
2022/03/19 04:28:19;;;;;;;;;;;5.90;86.10;;;;;;5083083;28;20008;-66
2022/03/19 04:30:45;;;;;;;;;;;5.90;86.10;;;;;;5080827;28;20343;-66
2022/03/19 04:33:10;;;;;;;;;;;5.90;86.20;;;;;;5083005;28;19955;-66
2022/03/19 04:38:21;;;;;;;;;;;5.90;86.20;;;;;;5083229;28;20012;-66
2022/03/19 04:40:48;;;;;;;;;;;5.90;86.30;;;;;;5083908;28;19908;-66
2022/03/19 04:43:13;;;;;;;;;;;5.90;86.30;;;;;;5084435;28;19916;-66
2022/03/19 04:45:39;;;;;;;;;;;5.90;86.30;;;;;;5081085;28;20234;-66
2022/03/19 04:48:05;;;;;;;;;;;5.80;86.30;;;;;;5081906;28;19915;-66
2022/03/19 04:50:31;;;;;;;;;;;5.80;86.20;;;;;;5081942;28;19924;-66
2022/03/19 04:52:58;;;;;;;;;;;5.80;86.20;;;;;;5082559;28;19916;-66
2022/03/19 04:55:24;;;;;;;;;;;5.80;86.20;;;;;;5080426;28;19912;-66
2022/03/19 04:57:50;;;;;;;;;;;5.80;86.30;;;;;;5083998;28;20265;-66
2022/03/19 05:00:17;;;;;;;;;;;5.80;86.30;;;;;;5085227;28;20003;-66
2022/03/19 05:02:44;;;;;;;;;;;5.80;86.30;;;;;;5074253;28;19967;-66
2022/03/19 05:05:10;;;;;;;;;;;5.80;86.30;;;;;;5082941;28;19951;-66
2022/03/19 05:07:35;;;;;;;;;;;5.80;86.30;;;;;;5087926;28;19943;-66
2022/03/19 05:12:47;;;;;;;;;;;5.80;86.50;;;;;;5085067;28;19951;-66
2022/03/19 05:15:14;;;;;;;;;;;5.70;86.40;;;;;;5069758;28;19916;-66
2022/03/19 05:17:39;;;;;;;;;;;5.70;86.40;;;;;;5083713;28;19923;-66
2022/03/19 05:20:05;;;;;;;;;;;5.70;87.00;;;;;;5084659;28;19915;-66
2022/03/19 05:22:31;;;;;;;;;;;5.70;86.40;;;;;;5085409;28;19916;-66
2022/03/19 05:24:56;;;;;;;;;;;5.70;86.50;;;;;;5087394;28;20388;-66
2022/03/19 05:27:22;;;;;;;;;;;5.70;86.40;;;;;;5087166;28;19969;-66
2022/03/19 05:29:48;;;;;;;;;;;5.70;86.50;;;;;;5086305;28;19967;-66
2022/03/19 05:32:14;;;;;;;;;;;5.70;86.50;;;;;;5085474;28;20427;-66
2022/03/19 05:34:40;;;;;;;;;;;5.70;86.40;;;;;;5085148;28;19916;-66
2022/03/19 05:37:06;;;;;;;;;;;5.60;86.50;;;;;;5084259;28;19995;-66
2022/03/19 05:39:32;;;;;;;;;;;5.60;86.50;;;;;;5085923;28;20007;-66
2022/03/19 05:41:57;;;;;;;;;;;5.60;86.50;;;;;;5085879;28;20239;-66
2022/03/19 05:44:23;;;;;;;;;;;5.60;86.40;;;;;;5082117;28;19916;-66
2022/03/19 05:46:49;;;;;;;;;;;5.60;86.50;;;;;;5085604;28;20015;-66
2022/03/19 05:49:15;;;;;;;;;;;5.60;86.50;;;;;;5085815;28;19912;-66
2022/03/19 05:51:40;;;;;;;;;;;5.60;86.50;;;;;;5084766;28;19909;-66
2022/03/19 05:54:06;;;;;;;;;;;5.60;87.10;;;;;;5083604;28;20504;-66
2022/03/19 05:56:32;;;;;;;;;;;5.60;86.40;;;;;;5082456;28;19921;-66
2022/03/19 05:58:57;;;;;;;;;;;5.60;86.50;;;;;;5081215;28;19983;-66
2022/03/19 06:01:26;;;;;;;;;;;5.60;86.40;;;;;;5087247;28;19911;-66
2022/03/19 06:04:00;;;;;;;;;;;5.60;86.50;;;;;;5070215;28;20394;-66
2022/03/19 06:06:26;;;;;;;;;;;5.60;86.50;;;;;;5086857;28;19908;-66
2022/03/19 06:08:52;;;;;;;;;;;5.60;86.50;;;;;;5086900;28;19908;-66
2022/03/19 06:11:17;;;;;;;;;;;5.60;86.50;;;;;;5085099;28;20329;-66
2022/03/19 06:13:43;;;;;;;;;;;5.60;86.50;;;;;;5085461;28;19916;-66
2022/03/19 06:16:09;;;;;;;;;;;5.60;86.30;;;;;;5082736;28;19936;-66
2022/03/19 06:18:34;;;;;;;;;;;5.60;86.40;;;;;;5084669;28;19957;-66
2022/03/19 06:21:00;;;;;;;;;;;5.60;86.40;;;;;;5084155;28;19909;-66
2022/03/19 06:23:25;;;;;;;;;;;5.60;86.30;;;;;;5086294;28;19908;-66
2022/03/19 06:25:51;;;;;;;;;;;5.60;86.30;;;;;;5082326;28;20582;-66
2022/03/19 06:28:16;;;;;;;;;;;5.60;86.30;;;;;;5086333;28;19931;-66
2022/03/19 06:30:42;;;;;;;;;;;5.60;86.20;;;;;;5083227;28;19916;-66
2022/03/19 06:33:08;;;;;;;;;;;5.60;86.10;;;;;;5079268;28;19991;-66
2022/03/19 06:38:18;;;;;;;;;;;5.60;86.10;;;;;;5082675;28;19919;-66
2022/03/19 06:40:44;;;;;;;;;;;5.60;86.00;;;;;;5081049;28;19939;-66
2022/03/19 06:43:09;;;;;;;;;;;5.60;85.90;;;;;;5070682;28;19959;-66
2022/03/19 06:45:35;;;;;;;;;;;5.60;85.90;;;;;;5070158;28;19923;-66
2022/03/19 06:48:00;;;;;;;;;;;5.60;85.70;;;;;;5076135;28;19987;-66
2022/03/19 06:50:26;;;;;;;;;;;5.70;85.80;;;;;;5084963;28;19916;-66
2022/03/19 06:52:51;;;;;;;;;;;5.70;85.80;;;;;;5080490;28;20347;-66
2022/03/19 06:55:17;;;;;;;;;;;5.70;85.60;;;;;;5074032;28;20015;-66
2022/03/19 06:57:42;;;;;;;;;;;5.70;86.40;;;;;;5073391;28;20640;-66
2022/03/19 07:00:08;;;;;;;;;;;5.70;85.80;;;;;;5084001;28;20003;-66
2022/03/19 07:02:45;;;;;;;;;;;5.70;85.60;;;;;;5088523;28;19991;-66
2022/03/19 07:05:10;;;;;;;;;;;5.70;85.60;;;;;;5082257;28;19912;-66
2022/03/19 07:07:36;;;;;;;;;;;5.80;85.80;;;;;;5082873;28;20065;-66
2022/03/19 07:10:01;;;;;;;;;;;5.80;85.60;;;;;;5080232;28;20687;-66
2022/03/19 07:12:27;;;;;;;;;;;5.80;85.60;;;;;;5083794;28;19965;-66
2022/03/19 07:14:52;;;;;;;;;;;5.80;85.60;;;;;;5084496;28;19913;-66
2022/03/19 07:17:18;;;;;;;;;;;5.80;85.70;;;;;;5085120;28;19916;-66
2022/03/19 07:19:43;;;;;;;;;;;5.80;85.60;;;;;;5084138;28;19923;-66
2022/03/19 07:22:09;;;;;;;;;;;5.80;85.50;;;;;;5081852;28;19917;-66
2022/03/19 07:24:36;;;;;;;;;;;5.80;85.40;;;;;;5080872;28;19908;-66
2022/03/19 07:27:02;;;;;;;;;;;5.80;85.50;;;;;;5082443;28;20046;-66
2022/03/19 07:29:27;;;;;;;;;;;5.90;85.50;;;;;;5083032;28;19999;-66
2022/03/19 07:31:53;;;;;;;;;;;5.90;85.50;;;;;;5083423;28;19927;-66
2022/03/19 07:34:18;;;;;;;;;;;5.90;85.30;;;;;;5067204;28;19995;-66
2022/03/19 07:36:44;;;;;;;;;;;5.90;85.40;;;;;;5068650;28;19916;-66
2022/03/19 07:39:10;;;;;;;;;;;6.00;85.40;;;;;;5071401;28;19912;-66
2022/03/19 07:41:48;;;;;;;;;;;6.00;85.50;;;;;;5083355;28;20379;-66
2022/03/19 07:44:15;;;;;;;;;;;6.00;85.40;;;;;;5085183;28;19923;-66
2022/03/19 07:46:42;;;;;;;;;;;6.00;86.20;;;;;;5083273;28;20045;-66
2022/03/19 07:49:07;;;;;;;;;;;6.10;85.30;;;;;;5080828;28;20018;-66
2022/03/19 07:51:33;;;;;;;;;;;6.10;85.10;;;;;;5068120;28;20564;-66
2022/03/19 07:53:59;;;;;;;;;;;6.10;85.10;;;;;;5081747;28;19951;-66
2022/03/19 07:56:24;;;;;;;;;;;6.20;85.00;;;;;;5084663;28;20002;-66
2022/03/19 07:58:50;;;;;;;;;;;6.20;84.90;;;;;;5084966;28;19909;-66
2022/03/19 08:01:16;;;;;;;;;;;6.30;84.80;;;;;;5087700;28;20291;-66
2022/03/19 08:03:42;;;;;;;;;;;6.40;84.70;;;;;;5083158;28;19915;-66
2022/03/19 08:06:07;;;;;;;;;;;6.40;84.50;;;;;;5084180;28;19916;-66
2022/03/19 08:08:34;;;;;;;;;;;6.50;84.40;;;;;;5078426;28;20466;-66
2022/03/19 08:11:01;;;;;;;;;;;6.60;84.30;;;;;;5082964;28;19912;-66
2022/03/19 08:13:26;;;;;;;;;;;6.60;84.10;;;;;;5081052;28;19908;-66
2022/03/19 08:15:52;;;;;;;;;;;6.60;84.10;;;;;;5080786;28;19916;-67
2022/03/19 08:18:18;;;;;;;;;;;6.70;84.10;;;;;;5083684;28;19916;-66
2022/03/19 08:20:46;;;;;;;;;;;6.80;84.10;;;;;;5083539;28;20338;-66
2022/03/19 08:23:12;;;;;;;;;;;6.80;84.00;;;;;;5080512;28;19946;-66
2022/03/19 08:25:38;;;;;;;;;;;7.00;84.10;;;;;;5082422;28;19922;-66
2022/03/19 08:28:04;;;;;;;;;;;7.00;83.80;;;;;;5084386;28;20397;-66
2022/03/19 08:30:29;;;;;;;;;;;7.10;83.60;;;;;;5083146;28;19916;-66
2022/03/19 08:32:55;;;;;;;;;;;7.20;83.20;;;;;;5084257;28;20379;-66
2022/03/19 08:35:20;;;;;;;;;;;7.30;83.50;;;;;;5082323;28;19969;-66
2022/03/19 08:37:46;;;;;;;;;;;7.30;83.00;;;;;;5085990;28;20349;-66
2022/03/19 08:40:15;;;;;;;;;;;7.40;82.70;;;;;;5085319;28;19919;-66
2022/03/19 08:42:41;;;;;;;;;;;7.40;82.80;;;;;;5082783;28;20660;-66
2022/03/19 08:45:07;;;;;;;;;;;7.50;82.50;;;;;;5083974;28;19912;-66
2022/03/19 08:47:32;;;;;;;;;;;7.50;82.60;;;;;;5085587;28;19912;-66
2022/03/19 08:49:58;;;;;;;;;;;7.60;82.20;;;;;;5078711;28;19916;-66
2022/03/19 08:52:23;;;;;;;;;;;7.70;81.90;;;;;;5088376;28;19916;-66
2022/03/19 08:54:49;;;;;;;;;;;7.70;82.00;;;;;;5087149;28;20434;-66
2022/03/19 08:57:14;;;;;;;;;;;7.70;82.00;;;;;;5086484;28;20011;-66
2022/03/19 08:59:40;;;;;;;;;;;7.80;81.70;;;;;;5084144;28;19908;-66
2022/03/19 09:02:05;;;;;;;;;;;7.80;81.70;;;;;;5088697;28;19962;-67
2022/03/19 09:04:32;;;;;;;;;;;7.80;81.70;;;;;;5086016;28;19916;-66
2022/03/19 09:06:57;;;;;;;;;;;7.80;81.70;;;;;;5084937;28;19916;-66
2022/03/19 09:09:23;;;;;;;;;;;7.90;81.90;;;;;;5086648;28;19912;-66
2022/03/19 09:11:48;;;;;;;;;;;7.90;81.90;;;;;;5085064;28;19920;-66
2022/03/19 09:14:14;;;;;;;;;;;8.00;82.00;;;;;;5086348;28;19998;-66
2022/03/19 09:16:40;;;;;;;;;;;7.90;81.90;;;;;;5085177;28;19912;-66
2022/03/19 09:19:06;;;;;;;;;;;8.00;81.70;;;;;;5082518;28;20399;-66
2022/03/19 09:21:31;;;;;;;;;;;8.00;81.70;;;;;;5086303;28;19916;-66
2022/03/19 09:23:57;;;;;;;;;;;8.00;81.60;;;;;;5087134;28;19951;-66
2022/03/19 09:26:23;;;;;;;;;;;8.00;81.70;;;;;;5087779;28;20019;-66
2022/03/19 09:28:48;;;;;;;;;;;8.10;81.60;;;;;;5086209;28;20630;-66
2022/03/19 09:31:16;;;;;;;;;;;8.10;81.50;;;;;;5085610;28;19919;-66
2022/03/19 09:33:46;;;;;;;;;;;8.10;81.40;;;;;;5082454;28;19908;-66
2022/03/19 09:36:12;;;;;;;;;;;8.10;81.40;;;;;;5087350;28;19916;-66
2022/03/19 09:38:38;;;;;;;;;;;8.10;81.30;;;;;;5071927;28;19916;-66
2022/03/19 09:41:03;;;;;;;;;;;8.10;81.40;;;;;;5084500;28;19924;-67
2022/03/19 09:43:29;;;;;;;;;;;8.10;81.50;;;;;;5080679;28;19912;-66
2022/03/19 09:45:55;;;;;;;;;;;8.10;81.30;;;;;;5087796;28;20065;-66
2022/03/19 09:48:20;;;;;;;;;;;8.10;81.40;;;;;;5086470;28;19923;-66
2022/03/19 09:50:49;;;;;;;;;;;8.10;81.40;;;;;;5085649;28;20416;-66
2022/03/19 09:53:17;;;;;;;;;;;8.20;81.40;;;;;;5085379;28;19912;-66
2022/03/19 09:55:43;;;;;;;;;;;8.20;81.30;;;;;;5082916;28;19978;-66
2022/03/19 09:58:09;;;;;;;;;;;8.20;81.30;;;;;;5085273;28;19920;-66
2022/03/19 10:00:36;;;;;;;;;;;8.20;81.20;;;;;;5085170;28;20266;-67
2022/03/19 10:03:03;;;;;;;;;;;8.20;81.20;;;;;;5085371;28;20314;-66
2022/03/19 10:11:01;;;;;;;;;;;8.20;81.00;;;;;;5085331;28;19927;-66
2022/03/19 10:13:27;;;;;;;;;;;8.30;81.00;;;;;;5084075;28;20703;-66
2022/03/19 10:15:52;;;;;;;;;;;8.30;80.80;;;;;;5084660;28;19919;-67
2022/03/19 10:18:18;;;;;;;;;;;8.30;80.80;;;;;;5086584;28;19961;-67
2022/03/19 10:20:44;;;;;;;;;;;8.30;80.70;;;;;;5085689;28;19916;-66
2022/03/19 10:23:10;;;;;;;;;;;8.40;80.80;;;;;;5085189;28;19918;-66
2022/03/19 10:25:36;;;;;;;;;;;8.40;80.80;;;;;;5067942;28;19916;-67
2022/03/19 10:28:03;;;;;;;;;;;8.40;80.70;;;;;;5067779;28;19912;-66
2022/03/19 10:30:36;;;;;;;;;;;8.40;80.60;;;;;;5084116;28;19920;-66
2022/03/19 10:33:01;;;;;;;;;;;8.40;80.50;;;;;;5081745;28;19916;-66
2022/03/19 10:35:34;;;;;;;;;;;8.50;80.40;;;;;;5082152;28;19919;-66
2022/03/19 10:38:01;;;;;;;;;;;8.50;80.40;;;;;;5084033;28;19969;-66
2022/03/19 10:40:37;;;;;;;;;;;8.50;80.30;;;;;;5083723;28;19920;-66
2022/03/19 10:43:04;;;;;;;;;;;8.50;80.10;;;;;;5086028;28;20415;-66
2022/03/19 10:45:30;;;;;;;;;;;8.60;79.90;;;;;;5085718;28;19912;-66
2022/03/19 10:47:55;;;;;;;;;;;8.60;80.00;;;;;;5084638;28;19969;-66
2022/03/19 10:50:22;;;;;;;;;;;8.70;79.50;;;;;;5083800;28;19920;-66
2022/03/19 10:52:51;;;;;;;;;;;8.70;79.50;;;;;;5086381;28;20011;-66
2022/03/19 10:55:17;;;;;;;;;;;8.80;78.80;;;;;;5085873;28;19912;-66
2022/03/19 10:57:43;;;;;;;;;;;8.80;79.10;;;;;;5070052;28;20036;-66
2022/03/19 11:00:09;;;;;;;;;;;8.90;76.80;;;;;;5083009;28;19953;-66
2022/03/19 11:02:35;;;;;;;;;;;9.00;76.70;;;;;;5083253;28;19912;-66
2022/03/19 11:05:00;;;;;;;;;;;9.10;78.30;;;;;;5085464;28;19919;-66
2022/03/19 11:07:29;;;;;;;;;;;9.20;77.00;;;;;;5078240;28;20010;-66
2022/03/19 11:09:56;;;;;;;;;;;9.20;77.80;;;;;;5080726;28;20011;-66
2022/03/19 11:12:23;;;;;;;;;;;9.30;78.40;;;;;;5086537;28;19915;-66
2022/03/19 11:14:50;;;;;;;;;;;9.40;77.90;;;;;;5083770;28;19912;-66
2022/03/19 11:17:25;;;;;;;;;;;9.50;76.70;;;;;;5085541;28;19959;-66
2022/03/19 11:19:59;;;;;;;;;;;9.70;76.20;;;;;;5083649;28;19919;-66
2022/03/19 11:22:25;;;;;;;;;;;9.80;75.30;;;;;;5083174;28;19962;-66
2022/03/19 11:24:54;;;;;;;;;;;9.90;74.30;;;;;;5082638;28;19923;-66
2022/03/19 11:27:20;;;;;;;;;;;10.10;74.60;;;;;;5085328;28;19916;-66
2022/03/19 11:29:46;;;;;;;;;;;10.20;74.50;;;;;;5085870;28;19939;-66
2022/03/19 11:32:22;;;;;;;;;;;10.30;73.80;;;;;;5083203;28;20366;-66
2022/03/19 11:34:48;;;;;;;;;;;10.40;74.00;;;;;;5082704;28;19912;-66
2022/03/19 11:37:13;;;;;;;;;;;10.50;73.90;;;;;;5082226;28;19923;-66
2022/03/19 11:39:59;;;;;;;;;;;10.70;73.40;;;;;;5083324;28;19987;-66
2022/03/19 11:42:28;;;;;;;;;;;10.80;73.40;;;;;;5084250;28;19916;-66
2022/03/19 11:44:54;;;;;;;;;;;10.90;73.10;;;;;;5084699;28;20316;-66
2022/03/19 11:47:20;;;;;;;;;;;11.00;71.90;;;;;;5065887;28;19922;-66
2022/03/19 11:49:53;;;;;;;;;;;11.10;72.70;;;;;;5081960;28;19984;-66
2022/03/19 11:52:38;;;;;;;;;;;11.10;72.80;;;;;;5083856;28;20387;-66
2022/03/19 11:55:10;;;;;;;;;;;11.20;72.60;;;;;;5081299;28;19912;-66
2022/03/19 11:57:56;;;;;;;;;;;11.30;72.90;;;;;;5071858;28;19927;-66
2022/03/19 12:00:26;;;;;;;;;;;11.40;73.40;;;;;;5079501;28;19915;-65
2022/03/19 12:03:12;;;;;;;;;;;11.40;73.10;;;;;;5080631;28;20528;-66
2022/03/19 12:05:39;;;;;;;;;;;11.50;73.30;;;;;;5085600;28;19912;-66
2022/03/19 12:08:06;;;;;;;;;;;11.60;73.60;;;;;;5083910;28;19995;-66
2022/03/19 12:10:39;;;;;;;;;;;11.60;74.00;;;;;;5086383;28;19919;-66
2022/03/19 12:13:23;;;;;;;;;;;11.70;74.10;;;;;;5071900;28;19915;-66
2022/03/19 12:15:49;;;;;;;;;;;11.70;73.70;;;;;;5087928;28;20602;-66
2022/03/19 12:18:33;;;;;;;;;;;11.80;73.50;;;;;;5086146;28;19955;-66
2022/03/19 12:21:00;;;;;;;;;;;11.80;74.00;;;;;;5084907;28;19912;-66
2022/03/19 12:23:29;;;;;;;;;;;11.90;73.90;;;;;;5089009;28;19915;-65
2022/03/19 12:26:02;;;;;;;;;;;12.00;74.20;;;;;;5071587;28;19912;-66
2022/03/19 12:28:28;;;;;;;;;;;12.00;74.10;;;;;;5085853;28;20348;-66
2022/03/19 12:30:54;;;;;;;;;;;12.00;74.20;;;;;;5089295;28;19961;-66
2022/03/19 12:33:28;;;;;;;;;;;12.00;74.10;;;;;;5084596;28;19919;-66
2022/03/19 12:35:56;;;;;;;;;;;12.10;74.10;;;;;;5089426;28;19965;-66
2022/03/19 12:38:22;;;;;;;;;;;12.10;74.20;;;;;;5072502;28;19927;-66
2022/03/19 12:43:35;;;;;;;;;;;12.20;74.20;;;;;;5086010;28;19964;-66
2022/03/19 12:46:01;;;;;;;;;;;12.20;74.10;;;;;;5084207;28;19912;-66
2022/03/19 12:48:31;;;;;;;;;;;12.30;74.20;;;;;;5074792;28;20470;-66
2022/03/19 12:50:56;;;;;;;;;;;12.30;74.10;;;;;;5085546;28;19916;-66
2022/03/19 12:53:35;;;;;;;;;;;12.30;73.80;;;;;;5088651;28;19915;-66
2022/03/19 12:56:14;;;;;;;;;;;12.30;73.70;;;;;;5084117;28;19926;-66
2022/03/19 12:58:40;;;;;;;;;;;12.30;73.80;;;;;;5066160;28;20498;-66
2022/03/19 13:01:07;;;;;;;;;;;12.30;73.70;;;;;;5087370;28;19928;-66
2022/03/19 13:03:32;;;;;;;;;;;12.40;73.40;;;;;;5086442;28;20053;-66
2022/03/19 13:05:58;;;;;;;;;;;12.40;73.80;;;;;;5087697;28;19995;-66
2022/03/19 13:08:23;;;;;;;;;;;12.40;74.10;;;;;;5072579;28;19916;-66
2022/03/19 13:10:52;;;;;;;;;;;12.40;73.20;;;;;;5086114;28;19917;-66
2022/03/19 13:13:18;;;;;;;;;;;12.40;74.10;;;;;;5086974;28;20025;-66
2022/03/19 13:15:47;;;;;;;;;;;12.40;73.80;;;;;;5084614;28;20524;-66
2022/03/19 13:18:24;;;;;;;;;;;12.40;73.20;;;;;;5086564;28;19917;-66
2022/03/19 13:21:09;;;;;;;;;;;12.50;73.20;;;;;;5087302;28;19912;-66
2022/03/19 13:23:36;;;;;;;;;;;12.50;72.30;;;;;;5085787;28;19918;-66
2022/03/19 13:26:03;;;;;;;;;;;12.50;70.80;;;;;;5072166;28;19946;-66
2022/03/19 13:28:28;;;;;;;;;;;12.60;72.50;;;;;;5086683;28;19916;-66
2022/03/19 13:30:55;;;;;;;;;;;12.60;71.70;;;;;;5087694;28;19916;-66
2022/03/19 13:33:22;;;;;;;;;;;12.50;71.90;;;;;;5086608;28;20009;-66
2022/03/19 13:35:47;;;;;;;;;;;12.60;71.80;;;;;;5086790;28;20015;-66
2022/03/19 13:38:14;;;;;;;;;;;12.60;73.00;;;;;;5072128;28;20436;-65
2022/03/19 13:40:40;;;;;;;;;;;12.60;73.60;;;;;;5082752;28;19912;-66
2022/03/19 13:43:06;;;;;;;;;;;12.60;73.30;;;;;;5084849;28;20291;-66
2022/03/19 13:45:32;;;;;;;;;;;12.60;73.60;;;;;;5087834;28;20395;-66
2022/03/19 13:48:02;;;;;;;;;;;12.60;74.30;;;;;;5072176;28;20001;-66
2022/03/19 13:50:28;;;;;;;;;;;12.70;73.40;;;;;;5086900;28;19916;-66
2022/03/19 13:52:59;;;;;;;;;;;12.60;72.50;;;;;;5087346;28;19922;-66
2022/03/19 13:55:27;;;;;;;;;;;12.70;71.80;;;;;;5086170;28;20026;-66
2022/03/19 13:57:56;;;;;;;;;;;12.70;71.70;;;;;;5085214;28;19920;-66
2022/03/19 14:00:28;;;;;;;;;;;12.70;72.60;;;;;;5084163;28;20018;-66
2022/03/19 14:02:54;;;;;;;;;;;12.70;73.60;;;;;;5085721;28;19916;-66
2022/03/19 14:05:21;;;;;;;;;;;12.70;72.10;;;;;;5085550;28;19917;-66
2022/03/19 14:07:47;;;;;;;;;;;12.70;71.90;;;;;;5087147;28;19919;-66
2022/03/19 14:10:14;;;;;;;;;;;12.70;72.90;;;;;;5085426;28;20376;-66
2022/03/19 14:12:41;;;;;;;;;;;12.70;73.50;;;;;;5085380;28;19919;-66
2022/03/19 14:15:07;;;;;;;;;;;12.70;73.40;;;;;;5086348;28;20279;-66
2022/03/19 14:17:52;;;;;;;;;;;12.70;71.50;;;;;;5084577;28;20014;-66
2022/03/19 14:20:19;;;;;;;;;;;12.70;71.80;;;;;;5082637;28;19943;-66
2022/03/19 14:22:46;;;;;;;;;;;12.80;71.50;;;;;;5085516;28;20513;-66
2022/03/19 14:25:11;;;;;;;;;;;12.80;72.30;;;;;;5086422;28;19944;-66
2022/03/19 14:27:37;;;;;;;;;;;12.80;72.60;;;;;;5070523;28;19956;-66
2022/03/19 14:30:04;;;;;;;;;;;12.80;73.10;;;;;;5083115;28;20067;-66
2022/03/19 14:32:29;;;;;;;;;;;12.70;72.70;;;;;;5082106;28;20352;-66
2022/03/19 14:34:55;;;;;;;;;;;12.70;73.60;;;;;;5086570;28;20004;-66
2022/03/19 14:37:20;;;;;;;;;;;12.70;72.80;;;;;;5085952;28;20403;-66
2022/03/19 14:39:46;;;;;;;;;;;12.70;72.90;;;;;;5086134;28;20563;-66
2022/03/19 14:42:12;;;;;;;;;;;12.80;71.80;;;;;;5067738;28;20004;-66